sensor_id;sensor_type;location;lat;lon;timestamp;temperature;humidity
38866;DHT22;62686;48.984;8.394;2023-04-24T00:02:05;10.80;99.90
38866;DHT22;62686;48.984;8.394;2023-04-24T00:04:37;10.90;99.90
38866;DHT22;62686;48.984;8.394;2023-04-24T00:07:07;10.80;99.90
38866;DHT22;62686;48.984;8.394;2023-04-24T00:09:35;10.80;99.90
38866;DHT22;62686;48.984;8.394;2023-04-24T00:12:04;10.80;99.90
38866;DHT22;62686;48.984;8.394;2023-04-24T00:14:32;10.80;99.90
38866;DHT22;62686;48.984;8.394;2023-04-24T00:17:02;11.00;99.90
38866;DHT22;62686;48.984;8.394;2023-04-24T00:19:32;11.00;99.90
38866;DHT22;62686;48.984;8.394;2023-04-24T00:22:00;11.10;99.90
38866;DHT22;62686;48.984;8.394;2023-04-24T00:24:29;11.30;99.90
38866;DHT22;62686;48.984;8.394;2023-04-24T00:26:58;11.40;99.90
38866;DHT22;62686;48.984;8.394;2023-04-24T00:29:27;11.40;99.90
38866;DHT22;62686;48.984;8.394;2023-04-24T00:31:56;11.50;99.90
38866;DHT22;62686;48.984;8.394;2023-04-24T00:34:24;11.50;99.90
38866;DHT22;62686;48.984;8.394;2023-04-24T00:36:54;11.50;99.90
38866;DHT22;62686;48.984;8.394;2023-04-24T00:39:22;11.50;99.90
38866;DHT22;62686;48.984;8.394;2023-04-24T00:41:51;11.50;99.90
38866;DHT22;62686;48.984;8.394;2023-04-24T00:44:19;11.50;99.90
38866;DHT22;62686;48.984;8.394;2023-04-24T00:46:48;11.50;99.90
38866;DHT22;62686;48.984;8.394;2023-04-24T00:49:18;11.50;99.90
38866;DHT22;62686;48.984;8.394;2023-04-24T00:51:47;11.40;99.90
38866;DHT22;62686;48.984;8.394;2023-04-24T00:54:17;11.40;99.90
38866;DHT22;62686;48.984;8.394;2023-04-24T00:56:46;11.30;99.90
38866;DHT22;62686;48.984;8.394;2023-04-24T00:59:16;11.30;99.90
38866;DHT22;62686;48.984;8.394;2023-04-24T01:01:44;11.30;99.90
38866;DHT22;62686;48.984;8.394;2023-04-24T01:04:13;11.30;99.90
38866;DHT22;62686;48.984;8.394;2023-04-24T01:06:43;11.30;99.90
38866;DHT22;62686;48.984;8.394;2023-04-24T01:09:12;11.20;99.90
38866;DHT22;62686;48.984;8.394;2023-04-24T01:11:43;11.20;99.90
38866;DHT22;62686;48.984;8.394;2023-04-24T01:14:12;11.10;99.90
38866;DHT22;62686;48.984;8.394;2023-04-24T01:16:40;11.00;99.90
38866;DHT22;62686;48.984;8.394;2023-04-24T01:19:10;10.90;99.90
38866;DHT22;62686;48.984;8.394;2023-04-24T01:21:40;10.90;99.90
38866;DHT22;62686;48.984;8.394;2023-04-24T01:24:11;10.90;99.90
38866;DHT22;62686;48.984;8.394;2023-04-24T01:26:40;10.80;99.90
38866;DHT22;62686;48.984;8.394;2023-04-24T01:29:08;10.90;99.90
38866;DHT22;62686;48.984;8.394;2023-04-24T01:31:37;11.00;99.90
38866;DHT22;62686;48.984;8.394;2023-04-24T01:34:06;11.10;99.90
38866;DHT22;62686;48.984;8.394;2023-04-24T01:36:35;11.30;99.90
38866;DHT22;62686;48.984;8.394;2023-04-24T01:39:03;11.30;99.90
38866;DHT22;62686;48.984;8.394;2023-04-24T01:41:33;11.40;99.90
38866;DHT22;62686;48.984;8.394;2023-04-24T01:44:02;11.50;99.90
38866;DHT22;62686;48.984;8.394;2023-04-24T01:46:31;11.60;99.90
38866;DHT22;62686;48.984;8.394;2023-04-24T01:49:01;11.50;99.90
38866;DHT22;62686;48.984;8.394;2023-04-24T01:51:30;11.50;99.90
38866;DHT22;62686;48.984;8.394;2023-04-24T01:53:58;11.30;99.90
38866;DHT22;62686;48.984;8.394;2023-04-24T01:56:29;11.30;99.90
38866;DHT22;62686;48.984;8.394;2023-04-24T01:58:59;11.20;99.90
38866;DHT22;62686;48.984;8.394;2023-04-24T02:01:33;11.30;99.90
38866;DHT22;62686;48.984;8.394;2023-04-24T02:04:03;11.20;99.90
38866;DHT22;62686;48.984;8.394;2023-04-24T02:06:31;11.20;99.90
38866;DHT22;62686;48.984;8.394;2023-04-24T02:09:00;11.20;99.90
38866;DHT22;62686;48.984;8.394;2023-04-24T02:11:29;11.10;99.90
38866;DHT22;62686;48.984;8.394;2023-04-24T02:13:59;11.10;99.90
38866;DHT22;62686;48.984;8.394;2023-04-24T02:16:28;11.10;99.90
38866;DHT22;62686;48.984;8.394;2023-04-24T02:18:59;11.00;99.90
38866;DHT22;62686;48.984;8.394;2023-04-24T02:21:28;11.00;99.90
38866;DHT22;62686;48.984;8.394;2023-04-24T02:23:57;11.00;99.90
38866;DHT22;62686;48.984;8.394;2023-04-24T02:26:26;11.10;99.90
38866;DHT22;62686;48.984;8.394;2023-04-24T02:28:54;11.20;99.90
38866;DHT22;62686;48.984;8.394;2023-04-24T02:31:24;11.20;99.90
38866;DHT22;62686;48.984;8.394;2023-04-24T02:33:52;11.40;99.90
38866;DHT22;62686;48.984;8.394;2023-04-24T02:36:20;11.50;99.90
38866;DHT22;62686;48.984;8.394;2023-04-24T02:38:48;11.50;99.90
38866;DHT22;62686;48.984;8.394;2023-04-24T02:41:17;11.50;99.90
38866;DHT22;62686;48.984;8.394;2023-04-24T02:43:45;11.60;99.90
38866;DHT22;62686;48.984;8.394;2023-04-24T02:46:16;11.60;99.90
38866;DHT22;62686;48.984;8.394;2023-04-24T02:48:46;11.60;99.90
38866;DHT22;62686;48.984;8.394;2023-04-24T02:51:14;11.50;99.90
38866;DHT22;62686;48.984;8.394;2023-04-24T02:53:43;11.60;99.90
38866;DHT22;62686;48.984;8.394;2023-04-24T02:56:11;11.50;99.90
38866;DHT22;62686;48.984;8.394;2023-04-24T02:58:39;11.50;99.90
38866;DHT22;62686;48.984;8.394;2023-04-24T03:01:09;11.30;99.90
38866;DHT22;62686;48.984;8.394;2023-04-24T03:03:37;11.20;99.90
38866;DHT22;62686;48.984;8.394;2023-04-24T03:06:07;11.00;99.90
38866;DHT22;62686;48.984;8.394;2023-04-24T03:08:36;10.90;99.90
38866;DHT22;62686;48.984;8.394;2023-04-24T03:11:04;10.80;99.90
38866;DHT22;62686;48.984;8.394;2023-04-24T03:13:32;10.70;99.90
38866;DHT22;62686;48.984;8.394;2023-04-24T03:16:01;10.60;99.90
38866;DHT22;62686;48.984;8.394;2023-04-24T03:18:30;10.50;99.90
38866;DHT22;62686;48.984;8.394;2023-04-24T03:20:58;10.50;99.90
38866;DHT22;62686;48.984;8.394;2023-04-24T03:23:28;10.40;99.90
38866;DHT22;62686;48.984;8.394;2023-04-24T03:25:56;10.40;99.90
38866;DHT22;62686;48.984;8.394;2023-04-24T03:28:24;10.30;99.90
38866;DHT22;62686;48.984;8.394;2023-04-24T03:30:52;10.20;99.90
38866;DHT22;62686;48.984;8.394;2023-04-24T03:33:21;10.20;99.90
38866;DHT22;62686;48.984;8.394;2023-04-24T03:35:49;10.20;99.90
38866;DHT22;62686;48.984;8.394;2023-04-24T03:38:17;10.10;99.90
38866;DHT22;62686;48.984;8.394;2023-04-24T03:40:47;10.20;99.90
38866;DHT22;62686;48.984;8.394;2023-04-24T03:43:15;10.20;99.90
38866;DHT22;62686;48.984;8.394;2023-04-24T03:45:44;10.10;99.90
38866;DHT22;62686;48.984;8.394;2023-04-24T03:48:12;10.10;99.90
38866;DHT22;62686;48.984;8.394;2023-04-24T03:50:40;10.10;99.90
38866;DHT22;62686;48.984;8.394;2023-04-24T03:53:08;10.10;99.90
38866;DHT22;62686;48.984;8.394;2023-04-24T03:55:36;10.00;99.90
38866;DHT22;62686;48.984;8.394;2023-04-24T03:58:06;9.90;99.90
38866;DHT22;62686;48.984;8.394;2023-04-24T04:00:35;9.90;99.90
38866;DHT22;62686;48.984;8.394;2023-04-24T04:03:04;9.90;99.90
38866;DHT22;62686;48.984;8.394;2023-04-24T04:05:32;9.80;99.90
38866;DHT22;62686;48.984;8.394;2023-04-24T04:08:00;9.80;99.90
38866;DHT22;62686;48.984;8.394;2023-04-24T04:10:29;9.70;99.90
38866;DHT22;62686;48.984;8.394;2023-04-24T04:12:57;9.60;99.90
38866;DHT22;62686;48.984;8.394;2023-04-24T04:15:26;9.60;99.90
38866;DHT22;62686;48.984;8.394;2023-04-24T04:17:55;9.50;99.90
38866;DHT22;62686;48.984;8.394;2023-04-24T04:20:23;9.60;99.90
38866;DHT22;62686;48.984;8.394;2023-04-24T04:22:52;9.60;99.90
38866;DHT22;62686;48.984;8.394;2023-04-24T04:25:20;9.50;99.90
38866;DHT22;62686;48.984;8.394;2023-04-24T04:27:49;9.50;99.90
38866;DHT22;62686;48.984;8.394;2023-04-24T04:30:19;9.30;99.90
38866;DHT22;62686;48.984;8.394;2023-04-24T04:32:49;9.20;99.90
38866;DHT22;62686;48.984;8.394;2023-04-24T04:35:18;9.00;99.90
38866;DHT22;62686;48.984;8.394;2023-04-24T04:37:47;9.00;99.90
38866;DHT22;62686;48.984;8.394;2023-04-24T04:40:15;8.90;99.90
38866;DHT22;62686;48.984;8.394;2023-04-24T04:42:44;8.90;99.90
38866;DHT22;62686;48.984;8.394;2023-04-24T04:45:12;8.80;99.90
38866;DHT22;62686;48.984;8.394;2023-04-24T04:47:43;8.70;99.90
38866;DHT22;62686;48.984;8.394;2023-04-24T04:50:13;8.70;99.90
38866;DHT22;62686;48.984;8.394;2023-04-24T04:52:43;8.60;99.90
38866;DHT22;62686;48.984;8.394;2023-04-24T04:55:11;8.70;99.90
38866;DHT22;62686;48.984;8.394;2023-04-24T04:57:40;8.70;99.90
38866;DHT22;62686;48.984;8.394;2023-04-24T05:00:10;8.70;99.90
38866;DHT22;62686;48.984;8.394;2023-04-24T05:02:38;8.80;99.90
38866;DHT22;62686;48.984;8.394;2023-04-24T05:05:07;8.80;99.90
38866;DHT22;62686;48.984;8.394;2023-04-24T05:07:39;8.90;99.90
38866;DHT22;62686;48.984;8.394;2023-04-24T05:10:08;9.00;99.90
38866;DHT22;62686;48.984;8.394;2023-04-24T05:12:37;9.10;99.90
38866;DHT22;62686;48.984;8.394;2023-04-24T05:15:07;9.30;99.90
38866;DHT22;62686;48.984;8.394;2023-04-24T05:17:35;9.50;99.90
38866;DHT22;62686;48.984;8.394;2023-04-24T05:20:05;9.70;99.90
38866;DHT22;62686;48.984;8.394;2023-04-24T05:22:33;10.00;99.90
38866;DHT22;62686;48.984;8.394;2023-04-24T05:25:07;10.30;99.90
38866;DHT22;62686;48.984;8.394;2023-04-24T05:27:35;10.60;99.90
38866;DHT22;62686;48.984;8.394;2023-04-24T05:30:05;10.80;99.90
38866;DHT22;62686;48.984;8.394;2023-04-24T05:32:33;11.00;99.90
38866;DHT22;62686;48.984;8.394;2023-04-24T05:35:01;11.20;99.90
38866;DHT22;62686;48.984;8.394;2023-04-24T05:37:29;11.10;99.90
38866;DHT22;62686;48.984;8.394;2023-04-24T05:39:59;11.20;99.90
38866;DHT22;62686;48.984;8.394;2023-04-24T05:42:29;11.20;99.90
38866;DHT22;62686;48.984;8.394;2023-04-24T05:44:58;11.10;99.90
38866;DHT22;62686;48.984;8.394;2023-04-24T05:47:26;11.20;99.90
38866;DHT22;62686;48.984;8.394;2023-04-24T05:49:54;11.30;99.90
38866;DHT22;62686;48.984;8.394;2023-04-24T05:52:22;11.40;99.90
38866;DHT22;62686;48.984;8.394;2023-04-24T05:54:51;11.80;99.90
38866;DHT22;62686;48.984;8.394;2023-04-24T05:57:19;12.70;99.90
38866;DHT22;62686;48.984;8.394;2023-04-24T05:59:49;13.70;99.90
38866;DHT22;62686;48.984;8.394;2023-04-24T06:02:18;13.90;99.90
38866;DHT22;62686;48.984;8.394;2023-04-24T06:04:46;13.50;99.90
38866;DHT22;62686;48.984;8.394;2023-04-24T06:07:15;13.10;99.90
38866;DHT22;62686;48.984;8.394;2023-04-24T06:09:43;12.70;99.90
38866;DHT22;62686;48.984;8.394;2023-04-24T06:12:11;12.60;99.90
38866;DHT22;62686;48.984;8.394;2023-04-24T06:14:39;12.60;99.90
38866;DHT22;62686;48.984;8.394;2023-04-24T06:17:09;12.60;99.90
38866;DHT22;62686;48.984;8.394;2023-04-24T06:19:37;12.90;99.90
38866;DHT22;62686;48.984;8.394;2023-04-24T06:22:06;13.10;99.90
38866;DHT22;62686;48.984;8.394;2023-04-24T06:24:35;13.00;99.90
38866;DHT22;62686;48.984;8.394;2023-04-24T06:27:03;13.00;99.90
38866;DHT22;62686;48.984;8.394;2023-04-24T06:29:32;13.00;99.90
38866;DHT22;62686;48.984;8.394;2023-04-24T06:32:01;12.80;99.90
38866;DHT22;62686;48.984;8.394;2023-04-24T06:34:31;12.70;99.90
38866;DHT22;62686;48.984;8.394;2023-04-24T06:37:01;12.90;99.90
38866;DHT22;62686;48.984;8.394;2023-04-24T06:39:29;12.90;99.90
38866;DHT22;62686;48.984;8.394;2023-04-24T06:41:58;13.00;99.90
38866;DHT22;62686;48.984;8.394;2023-04-24T06:44:27;13.00;99.90
38866;DHT22;62686;48.984;8.394;2023-04-24T06:46:55;13.40;99.90
38866;DHT22;62686;48.984;8.394;2023-04-24T06:49:23;13.80;99.90
38866;DHT22;62686;48.984;8.394;2023-04-24T06:51:53;13.90;99.90
38866;DHT22;62686;48.984;8.394;2023-04-24T06:54:21;13.60;99.90
38866;DHT22;62686;48.984;8.394;2023-04-24T06:56:49;13.50;99.90
38866;DHT22;62686;48.984;8.394;2023-04-24T06:59:18;13.50;99.90
38866;DHT22;62686;48.984;8.394;2023-04-24T07:01:47;14.10;99.90
38866;DHT22;62686;48.984;8.394;2023-04-24T07:04:15;15.00;99.90
38866;DHT22;62686;48.984;8.394;2023-04-24T07:06:44;15.30;99.90
38866;DHT22;62686;48.984;8.394;2023-04-24T07:09:14;14.60;99.90
38866;DHT22;62686;48.984;8.394;2023-04-24T07:11:45;14.30;99.90
38866;DHT22;62686;48.984;8.394;2023-04-24T07:14:14;14.90;99.90
38866;DHT22;62686;48.984;8.394;2023-04-24T07:16:42;15.70;99.90
38866;DHT22;62686;48.984;8.394;2023-04-24T07:19:12;16.40;99.90
38866;DHT22;62686;48.984;8.394;2023-04-24T07:21:40;16.40;99.90
38866;DHT22;62686;48.984;8.394;2023-04-24T07:24:08;15.50;99.90
38866;DHT22;62686;48.984;8.394;2023-04-24T07:26:41;14.50;99.90
38866;DHT22;62686;48.984;8.394;2023-04-24T07:29:10;14.00;99.90
38866;DHT22;62686;48.984;8.394;2023-04-24T07:31:39;13.70;99.90
38866;DHT22;62686;48.984;8.394;2023-04-24T07:34:09;13.10;99.90
38866;DHT22;62686;48.984;8.394;2023-04-24T07:36:38;13.20;99.90
38866;DHT22;62686;48.984;8.394;2023-04-24T07:39:06;14.00;99.90
38866;DHT22;62686;48.984;8.394;2023-04-24T07:41:35;14.50;99.90
38866;DHT22;62686;48.984;8.394;2023-04-24T07:44:04;14.20;99.90
38866;DHT22;62686;48.984;8.394;2023-04-24T07:46:34;13.50;99.90
38866;DHT22;62686;48.984;8.394;2023-04-24T07:49:03;13.20;99.90
38866;DHT22;62686;48.984;8.394;2023-04-24T07:51:37;12.80;99.90
38866;DHT22;62686;48.984;8.394;2023-04-24T07:54:06;12.80;99.90
38866;DHT22;62686;48.984;8.394;2023-04-24T07:56:34;12.80;99.90
38866;DHT22;62686;48.984;8.394;2023-04-24T07:59:09;12.70;99.90
38866;DHT22;62686;48.984;8.394;2023-04-24T08:01:38;12.40;99.90
38866;DHT22;62686;48.984;8.394;2023-04-24T08:04:07;12.20;99.90
38866;DHT22;62686;48.984;8.394;2023-04-24T08:06:35;12.10;99.90
38866;DHT22;62686;48.984;8.394;2023-04-24T08:09:06;12.10;99.90
38866;DHT22;62686;48.984;8.394;2023-04-24T08:11:35;12.10;99.90
38866;DHT22;62686;48.984;8.394;2023-04-24T08:14:10;12.10;99.90
38866;DHT22;62686;48.984;8.394;2023-04-24T08:16:40;12.20;99.90
38866;DHT22;62686;48.984;8.394;2023-04-24T08:19:12;12.40;99.90
38866;DHT22;62686;48.984;8.394;2023-04-24T08:21:43;13.00;99.90
38866;DHT22;62686;48.984;8.394;2023-04-24T08:24:15;13.50;99.90
38866;DHT22;62686;48.984;8.394;2023-04-24T08:26:44;13.50;99.90
38866;DHT22;62686;48.984;8.394;2023-04-24T08:29:13;12.90;99.90
38866;DHT22;62686;48.984;8.394;2023-04-24T08:31:45;12.40;99.90
38866;DHT22;62686;48.984;8.394;2023-04-24T08:34:13;12.10;99.90
38866;DHT22;62686;48.984;8.394;2023-04-24T08:36:41;11.70;99.90
38866;DHT22;62686;48.984;8.394;2023-04-24T08:39:12;11.30;99.90
38866;DHT22;62686;48.984;8.394;2023-04-24T08:41:42;10.90;99.90
38866;DHT22;62686;48.984;8.394;2023-04-24T08:44:13;11.00;99.90
38866;DHT22;62686;48.984;8.394;2023-04-24T08:46:44;11.20;99.90
38866;DHT22;62686;48.984;8.394;2023-04-24T08:49:14;11.70;99.90
38866;DHT22;62686;48.984;8.394;2023-04-24T08:51:46;12.20;99.90
38866;DHT22;62686;48.984;8.394;2023-04-24T08:54:14;12.80;99.90
38866;DHT22;62686;48.984;8.394;2023-04-24T08:56:53;14.00;99.90
38866;DHT22;62686;48.984;8.394;2023-04-24T08:59:23;16.60;99.90
38866;DHT22;62686;48.984;8.394;2023-04-24T09:01:55;18.10;99.90
38866;DHT22;62686;48.984;8.394;2023-04-24T09:04:24;18.00;99.90
38866;DHT22;62686;48.984;8.394;2023-04-24T09:06:56;17.40;99.90
38866;DHT22;62686;48.984;8.394;2023-04-24T09:09:25;15.20;99.90
38866;DHT22;62686;48.984;8.394;2023-04-24T09:11:53;15.20;99.90
38866;DHT22;62686;48.984;8.394;2023-04-24T09:14:24;15.10;99.90
38866;DHT22;62686;48.984;8.394;2023-04-24T09:16:54;15.10;99.90
38866;DHT22;62686;48.984;8.394;2023-04-24T09:19:22;14.90;99.90
38866;DHT22;62686;48.984;8.394;2023-04-24T09:21:53;14.60;99.90
38866;DHT22;62686;48.984;8.394;2023-04-24T09:24:22;14.30;99.90
38866;DHT22;62686;48.984;8.394;2023-04-24T09:26:56;14.30;99.90
38866;DHT22;62686;48.984;8.394;2023-04-24T09:29:27;14.20;99.90
38866;DHT22;62686;48.984;8.394;2023-04-24T09:31:55;13.80;99.90
38866;DHT22;62686;48.984;8.394;2023-04-24T09:34:25;13.80;99.90
38866;DHT22;62686;48.984;8.394;2023-04-24T09:36:54;13.50;99.90
38866;DHT22;62686;48.984;8.394;2023-04-24T09:39:22;13.10;99.90
38866;DHT22;62686;48.984;8.394;2023-04-24T09:41:52;13.10;99.90
38866;DHT22;62686;48.984;8.394;2023-04-24T09:44:21;13.00;99.90
38866;DHT22;62686;48.984;8.394;2023-04-24T09:46:53;13.20;99.90
38866;DHT22;62686;48.984;8.394;2023-04-24T09:49:23;13.30;99.90
38866;DHT22;62686;48.984;8.394;2023-04-24T09:51:53;13.70;99.90
38866;DHT22;62686;48.984;8.394;2023-04-24T09:54:30;14.10;99.90
38866;DHT22;62686;48.984;8.394;2023-04-24T09:56:58;14.00;99.90
38866;DHT22;62686;48.984;8.394;2023-04-24T09:59:28;14.00;99.90
38866;DHT22;62686;48.984;8.394;2023-04-24T10:01:58;13.90;99.90
38866;DHT22;62686;48.984;8.394;2023-04-24T10:04:28;14.60;99.90
38866;DHT22;62686;48.984;8.394;2023-04-24T10:06:57;15.30;99.90
38866;DHT22;62686;48.984;8.394;2023-04-24T10:09:26;15.70;99.90
38866;DHT22;62686;48.984;8.394;2023-04-24T10:11:55;16.00;99.90
38866;DHT22;62686;48.984;8.394;2023-04-24T10:14:24;15.80;99.90
38866;DHT22;62686;48.984;8.394;2023-04-24T10:16:54;15.40;99.90
38866;DHT22;62686;48.984;8.394;2023-04-24T10:19:26;15.20;99.90
38866;DHT22;62686;48.984;8.394;2023-04-24T10:21:54;14.70;99.90
38866;DHT22;62686;48.984;8.394;2023-04-24T10:24:24;14.40;99.90
38866;DHT22;62686;48.984;8.394;2023-04-24T10:26:55;13.90;99.90
38866;DHT22;62686;48.984;8.394;2023-04-24T10:29:25;13.30;99.90
38866;DHT22;62686;48.984;8.394;2023-04-24T10:31:53;13.20;99.90
38866;DHT22;62686;48.984;8.394;2023-04-24T10:34:23;13.10;99.90
38866;DHT22;62686;48.984;8.394;2023-04-24T10:36:53;13.10;99.90
38866;DHT22;62686;48.984;8.394;2023-04-24T10:39:23;13.00;99.90
38866;DHT22;62686;48.984;8.394;2023-04-24T10:41:51;12.90;99.90
38866;DHT22;62686;48.984;8.394;2023-04-24T10:44:22;12.70;99.90
38866;DHT22;62686;48.984;8.394;2023-04-24T10:46:53;12.60;99.90
38866;DHT22;62686;48.984;8.394;2023-04-24T10:49:30;12.40;99.90
38866;DHT22;62686;48.984;8.394;2023-04-24T10:52:01;12.50;99.90
38866;DHT22;62686;48.984;8.394;2023-04-24T10:54:35;12.60;99.90
38866;DHT22;62686;48.984;8.394;2023-04-24T10:57:38;12.60;99.90
38866;DHT22;62686;48.984;8.394;2023-04-24T11:00:24;12.40;99.90
38866;DHT22;62686;48.984;8.394;2023-04-24T11:02:54;12.10;99.90
38866;DHT22;62686;48.984;8.394;2023-04-24T11:05:50;12.00;99.90
38866;DHT22;62686;48.984;8.394;2023-04-24T11:08:25;12.10;99.90
38866;DHT22;62686;48.984;8.394;2023-04-24T11:11:01;12.10;99.90
38866;DHT22;62686;48.984;8.394;2023-04-24T11:14:03;12.10;99.90
38866;DHT22;62686;48.984;8.394;2023-04-24T11:16:42;12.00;99.90
38866;DHT22;62686;48.984;8.394;2023-04-24T11:19:20;11.90;99.90
38866;DHT22;62686;48.984;8.394;2023-04-24T11:21:58;12.10;99.90
38866;DHT22;62686;48.984;8.394;2023-04-24T11:24:50;12.30;99.90
38866;DHT22;62686;48.984;8.394;2023-04-24T11:27:20;12.50;99.90
38866;DHT22;62686;48.984;8.394;2023-04-24T11:29:58;12.70;99.90
38866;DHT22;62686;48.984;8.394;2023-04-24T11:32:34;12.60;99.90
38866;DHT22;62686;48.984;8.394;2023-04-24T11:35:04;12.10;99.90
38866;DHT22;62686;48.984;8.394;2023-04-24T11:37:37;11.80;99.90
38866;DHT22;62686;48.984;8.394;2023-04-24T11:40:09;11.80;99.90
38866;DHT22;62686;48.984;8.394;2023-04-24T11:42:39;11.90;99.90
38866;DHT22;62686;48.984;8.394;2023-04-24T11:47:49;11.40;99.90
38866;DHT22;62686;48.984;8.394;2023-04-24T11:50:22;11.00;99.90
38866;DHT22;62686;48.984;8.394;2023-04-24T11:52:52;10.80;99.90
38866;DHT22;62686;48.984;8.394;2023-04-24T11:55:25;10.80;99.90
38866;DHT22;62686;48.984;8.394;2023-04-24T11:57:57;10.80;99.90
38866;DHT22;62686;48.984;8.394;2023-04-24T12:00:27;10.90;99.90
38866;DHT22;62686;48.984;8.394;2023-04-24T12:03:05;11.10;99.90
38866;DHT22;62686;48.984;8.394;2023-04-24T12:05:34;11.50;99.90
38866;DHT22;62686;48.984;8.394;2023-04-24T12:08:04;12.20;99.90
38866;DHT22;62686;48.984;8.394;2023-04-24T12:10:34;14.20;99.90
38866;DHT22;62686;48.984;8.394;2023-04-24T12:13:02;16.10;99.90
38866;DHT22;62686;48.984;8.394;2023-04-24T12:15:31;17.50;99.90
38866;DHT22;62686;48.984;8.394;2023-04-24T12:17:59;18.60;99.90
38866;DHT22;62686;48.984;8.394;2023-04-24T12:20:30;19.80;99.90
38866;DHT22;62686;48.984;8.394;2023-04-24T12:23:00;18.60;99.90
38866;DHT22;62686;48.984;8.394;2023-04-24T12:25:38;16.70;99.90
38866;DHT22;62686;48.984;8.394;2023-04-24T12:28:12;15.30;99.90
38866;DHT22;62686;48.984;8.394;2023-04-24T12:30:47;14.90;99.90
38866;DHT22;62686;48.984;8.394;2023-04-24T12:33:19;15.30;99.90
38866;DHT22;62686;48.984;8.394;2023-04-24T12:35:53;15.70;99.90
38866;DHT22;62686;48.984;8.394;2023-04-24T12:38:45;16.40;99.90
38866;DHT22;62686;48.984;8.394;2023-04-24T12:41:15;17.10;99.90
38866;DHT22;62686;48.984;8.394;2023-04-24T12:43:52;18.60;99.90
38866;DHT22;62686;48.984;8.394;2023-04-24T12:46:24;18.50;99.90
38866;DHT22;62686;48.984;8.394;2023-04-24T12:48:56;18.60;99.90
38866;DHT22;62686;48.984;8.394;2023-04-24T12:51:25;19.20;99.90
38866;DHT22;62686;48.984;8.394;2023-04-24T12:53:53;20.50;99.90
38866;DHT22;62686;48.984;8.394;2023-04-24T12:56:23;20.00;99.90
38866;DHT22;62686;48.984;8.394;2023-04-24T12:58:53;19.10;99.90
38866;DHT22;62686;48.984;8.394;2023-04-24T13:01:40;17.20;99.90
38866;DHT22;62686;48.984;8.394;2023-04-24T13:04:10;15.80;99.90
38866;DHT22;62686;48.984;8.394;2023-04-24T13:06:39;14.60;99.90
38866;DHT22;62686;48.984;8.394;2023-04-24T13:09:12;13.80;99.90
38866;DHT22;62686;48.984;8.394;2023-04-24T13:11:46;13.50;99.90
38866;DHT22;62686;48.984;8.394;2023-04-24T13:16:51;13.10;99.90
38866;DHT22;62686;48.984;8.394;2023-04-24T13:19:19;13.30;99.90
38866;DHT22;62686;48.984;8.394;2023-04-24T13:21:47;13.90;99.90
38866;DHT22;62686;48.984;8.394;2023-04-24T13:24:16;14.70;99.90
38866;DHT22;62686;48.984;8.394;2023-04-24T13:26:46;16.80;99.90
38866;DHT22;62686;48.984;8.394;2023-04-24T13:29:14;18.40;99.90
38866;DHT22;62686;48.984;8.394;2023-04-24T13:31:43;18.80;99.90
38866;DHT22;62686;48.984;8.394;2023-04-24T13:34:11;20.10;99.90
38866;DHT22;62686;48.984;8.394;2023-04-24T13:36:39;18.70;99.90
38866;DHT22;62686;48.984;8.394;2023-04-24T13:39:08;19.10;99.90
38866;DHT22;62686;48.984;8.394;2023-04-24T13:41:36;19.70;99.90
38866;DHT22;62686;48.984;8.394;2023-04-24T13:44:06;20.60;99.90
38866;DHT22;62686;48.984;8.394;2023-04-24T13:46:34;21.80;99.90
38866;DHT22;62686;48.984;8.394;2023-04-24T13:49:03;21.20;99.90
38866;DHT22;62686;48.984;8.394;2023-04-24T13:51:32;20.10;99.90
38866;DHT22;62686;48.984;8.394;2023-04-24T13:54:02;18.70;99.90
38866;DHT22;62686;48.984;8.394;2023-04-24T13:56:30;17.40;99.90
38866;DHT22;62686;48.984;8.394;2023-04-24T13:58:59;16.70;99.90
38866;DHT22;62686;48.984;8.394;2023-04-24T14:01:29;15.80;99.90
38866;DHT22;62686;48.984;8.394;2023-04-24T14:03:58;15.50;99.90
38866;DHT22;62686;48.984;8.394;2023-04-24T14:06:26;15.20;99.90
38866;DHT22;62686;48.984;8.394;2023-04-24T14:09:01;15.10;99.90
38866;DHT22;62686;48.984;8.394;2023-04-24T14:11:30;15.00;99.90
38866;DHT22;62686;48.984;8.394;2023-04-24T14:13:59;14.90;99.90
38866;DHT22;62686;48.984;8.394;2023-04-24T14:16:29;14.70;99.90
38866;DHT22;62686;48.984;8.394;2023-04-24T14:18:58;14.30;99.90
38866;DHT22;62686;48.984;8.394;2023-04-24T14:21:26;13.70;99.90
38866;DHT22;62686;48.984;8.394;2023-04-24T14:23:58;13.00;99.90
38866;DHT22;62686;48.984;8.394;2023-04-24T14:26:27;13.20;99.90
38866;DHT22;62686;48.984;8.394;2023-04-24T14:28:55;14.60;99.90
38866;DHT22;62686;48.984;8.394;2023-04-24T14:34:17;15.70;99.90
38866;DHT22;62686;48.984;8.394;2023-04-24T14:39:20;17.20;99.90
38866;DHT22;62686;48.984;8.394;2023-04-24T14:41:49;17.50;99.90
38866;DHT22;62686;48.984;8.394;2023-04-24T14:44:17;18.00;99.90
38866;DHT22;62686;48.984;8.394;2023-04-24T14:46:46;18.40;99.90
38866;DHT22;62686;48.984;8.394;2023-04-24T14:49:14;18.50;99.90
38866;DHT22;62686;48.984;8.394;2023-04-24T14:51:47;18.30;99.90
38866;DHT22;62686;48.984;8.394;2023-04-24T14:54:21;18.70;99.90
38866;DHT22;62686;48.984;8.394;2023-04-24T14:57:05;19.00;99.90
38866;DHT22;62686;48.984;8.394;2023-04-24T14:59:33;17.60;99.90
38866;DHT22;62686;48.984;8.394;2023-04-24T15:02:01;16.60;99.90
38866;DHT22;62686;48.984;8.394;2023-04-24T15:04:41;15.50;99.90
38866;DHT22;62686;48.984;8.394;2023-04-24T15:07:14;15.00;99.90
38866;DHT22;62686;48.984;8.394;2023-04-24T15:09:43;14.60;99.90
38866;DHT22;62686;48.984;8.394;2023-04-24T15:12:14;14.40;99.90
38866;DHT22;62686;48.984;8.394;2023-04-24T15:14:42;14.30;99.90
38866;DHT22;62686;48.984;8.394;2023-04-24T15:17:10;14.20;99.90
38866;DHT22;62686;48.984;8.394;2023-04-24T15:19:39;14.20;99.90
38866;DHT22;62686;48.984;8.394;2023-04-24T15:22:07;14.20;99.90
38866;DHT22;62686;48.984;8.394;2023-04-24T15:59:11;13.20;99.90
38866;DHT22;62686;48.984;8.394;2023-04-24T16:01:41;12.90;99.90
38866;DHT22;62686;48.984;8.394;2023-04-24T16:04:10;12.70;99.90
38866;DHT22;62686;48.984;8.394;2023-04-24T16:06:38;12.70;99.90
38866;DHT22;62686;48.984;8.394;2023-04-24T16:09:07;12.90;99.90
38866;DHT22;62686;48.984;8.394;2023-04-24T16:11:36;13.00;99.90
38866;DHT22;62686;48.984;8.394;2023-04-24T16:14:05;13.00;99.90
38866;DHT22;62686;48.984;8.394;2023-04-24T16:16:36;13.00;99.90
38866;DHT22;62686;48.984;8.394;2023-04-24T16:19:05;12.80;99.90
38866;DHT22;62686;48.984;8.394;2023-04-24T16:21:34;12.70;99.90
38866;DHT22;62686;48.984;8.394;2023-04-24T16:24:02;12.50;99.90
38866;DHT22;62686;48.984;8.394;2023-04-24T16:26:30;12.50;99.90
38866;DHT22;62686;48.984;8.394;2023-04-24T16:28:59;12.40;99.90
38866;DHT22;62686;48.984;8.394;2023-04-24T16:31:27;12.40;99.90
38866;DHT22;62686;48.984;8.394;2023-04-24T16:33:57;12.40;99.90
38866;DHT22;62686;48.984;8.394;2023-04-24T16:36:25;12.30;99.90